createdAt,value
2023-01-13T00:01:10.646Z,10.20
2023-01-13T00:03:39.081Z,10.20
2023-01-13T00:06:08.373Z,10.20
2023-01-13T00:08:36.499Z,10.20
2023-01-13T00:11:04.599Z,10.20
2023-01-13T00:13:35.245Z,10.40
2023-01-13T00:16:07.103Z,10.30
2023-01-13T00:18:36.888Z,10.30
2023-01-13T00:21:06.886Z,10.40
2023-01-13T00:26:06.857Z,10.10
2023-01-13T00:28:35.259Z,10.10
2023-01-13T00:31:08.546Z,10.10
2023-01-13T00:33:37.532Z,10.10
2023-01-13T00:36:07.848Z,10.10
2023-01-13T00:38:37.865Z,10.00
2023-01-13T00:41:08.388Z,10.00
2023-01-13T00:43:36.952Z,10.00
2023-01-13T00:46:06.266Z,9.90
2023-01-13T00:48:36.671Z,9.90
2023-01-13T00:51:07.701Z,9.90
2023-01-13T00:53:37.508Z,9.90
2023-01-13T00:56:07.358Z,9.80
2023-01-13T00:58:36.684Z,9.80
2023-01-13T01:01:06.684Z,9.80
2023-01-13T01:03:36.906Z,9.70
2023-01-13T01:06:07.032Z,9.70
2023-01-13T01:08:35.495Z,9.60
2023-01-13T01:11:04.506Z,9.60
2023-01-13T01:13:32.720Z,9.60
2023-01-13T01:16:01.091Z,9.50
2023-01-13T01:18:29.140Z,9.60
2023-01-13T01:21:02.212Z,9.50
2023-01-13T01:23:30.726Z,9.50
2023-01-13T01:26:02.364Z,9.60
2023-01-13T01:28:30.554Z,9.50
2023-01-13T01:30:59.871Z,9.50
2023-01-13T01:33:28.102Z,9.50
2023-01-13T01:35:56.434Z,9.50
2023-01-13T01:38:25.860Z,9.40
2023-01-13T01:40:53.964Z,9.40
2023-01-13T01:43:41.721Z,9.40
2023-01-13T01:46:09.846Z,9.50
2023-01-13T01:48:42.256Z,9.50
2023-01-13T01:51:13.001Z,9.40
2023-01-13T01:53:42.857Z,9.40
2023-01-13T01:56:12.386Z,9.40
2023-01-13T01:58:46.158Z,9.40
2023-01-13T02:01:15.359Z,9.30
2023-01-13T02:03:46.894Z,9.30
2023-01-13T02:06:15.927Z,9.30
2023-01-13T02:08:45.741Z,9.30
2023-01-13T02:11:42.578Z,9.30
2023-01-13T02:14:10.670Z,9.30
2023-01-13T02:16:47.022Z,9.30
2023-01-13T02:19:30.043Z,9.30
2023-01-13T02:22:19.400Z,9.30
2023-01-13T02:25:07.996Z,9.30
2023-01-13T02:27:55.530Z,9.20
2023-01-13T02:30:52.286Z,9.20
2023-01-13T02:33:42.442Z,9.10
2023-01-13T02:36:18.936Z,9.10
2023-01-13T02:38:53.269Z,9.10
2023-01-13T02:41:46.854Z,9.10
2023-01-13T02:44:21.516Z,9.10
2023-01-13T02:46:56.780Z,9.20
2023-01-13T02:49:34.933Z,9.20
2023-01-13T02:52:11.188Z,9.20
2023-01-13T02:54:43.304Z,9.20
2023-01-13T02:57:14.273Z,9.20
2023-01-13T02:59:44.236Z,9.20
2023-01-13T03:02:17.637Z,9.20
2023-01-13T03:04:51.884Z,9.30
2023-01-13T03:07:47.421Z,9.30
2023-01-13T03:10:26.639Z,9.30
2023-01-13T03:13:03.063Z,9.40
2023-01-13T03:15:44.035Z,9.40
2023-01-13T03:18:25.964Z,9.40
2023-01-13T03:21:04.305Z,9.30
2023-01-13T03:23:38.113Z,9.30
2023-01-13T03:26:11.371Z,9.20
2023-01-13T03:28:45.240Z,9.10
2023-01-13T03:31:17.051Z,9.10
2023-01-13T03:33:51.540Z,9.10
2023-01-13T03:36:25.763Z,9.10
2023-01-13T03:38:58.558Z,9.10
2023-01-13T03:41:31.282Z,9.10
2023-01-13T03:44:22.182Z,9.10
2023-01-13T03:46:58.575Z,9.10
2023-01-13T03:49:32.643Z,9.10
2023-01-13T03:52:06.006Z,9.10
2023-01-13T03:54:40.486Z,9.20
2023-01-13T03:57:11.196Z,9.20
2023-01-13T03:59:43.669Z,9.20
2023-01-13T04:02:17.310Z,9.20
2023-01-13T04:04:53.057Z,9.30
2023-01-13T04:07:29.608Z,9.20
2023-01-13T04:10:01.066Z,9.20
2023-01-13T04:12:52.085Z,9.20
2023-01-13T04:15:23.563Z,9.20
2023-01-13T04:17:52.050Z,9.10
2023-01-13T04:20:21.852Z,9.10
2023-01-13T04:22:49.913Z,9.10
2023-01-13T04:25:18.058Z,9.00
2023-01-13T04:27:46.131Z,9.00
2023-01-13T04:30:14.553Z,9.00
2023-01-13T04:32:42.641Z,9.00
2023-01-13T04:35:10.862Z,9.00
2023-01-13T04:37:40.314Z,8.90
2023-01-13T04:40:10.047Z,8.90
2023-01-13T04:42:38.108Z,9.00
2023-01-13T04:45:07.026Z,8.90
2023-01-13T04:47:35.084Z,8.90
2023-01-13T04:50:03.199Z,9.20
2023-01-13T04:52:31.299Z,9.00
2023-01-13T04:59:57.761Z,9.00
2023-01-13T05:02:25.863Z,9.00
2023-01-13T05:04:54.033Z,9.00
2023-01-13T05:07:22.148Z,9.00
2023-01-13T05:09:50.455Z,9.00
2023-01-13T05:12:43.072Z,9.00
2023-01-13T05:15:31.020Z,8.90
2023-01-13T05:17:59.515Z,8.90
2023-01-13T05:20:27.676Z,8.90
2023-01-13T05:23:13.161Z,8.90
2023-01-13T05:25:44.510Z,8.90
2023-01-13T05:28:14.132Z,8.80
2023-01-13T05:30:43.848Z,8.80
2023-01-13T05:33:12.957Z,8.80
2023-01-13T05:35:41.803Z,8.80
2023-01-13T05:38:10.155Z,8.60
2023-01-13T05:40:57.778Z,8.80
2023-01-13T05:43:28.918Z,8.70
2023-01-13T05:45:59.389Z,8.80
2023-01-13T05:48:29.335Z,8.70
2023-01-13T05:50:57.783Z,8.70
2023-01-13T05:53:26.403Z,8.70
2023-01-13T05:55:55.039Z,8.60
2023-01-13T05:58:25.042Z,8.60
2023-01-13T06:00:55.024Z,8.60
2023-01-13T06:03:23.704Z,8.60
2023-01-13T06:05:58.413Z,8.60
2023-01-13T06:08:26.861Z,8.50
2023-01-13T06:10:55.285Z,8.60
2023-01-13T06:13:25.224Z,8.70
2023-01-13T06:15:57.927Z,8.70
2023-01-13T06:18:26.136Z,8.50
2023-01-13T06:20:54.241Z,8.50
2023-01-13T06:23:22.326Z,8.60
2023-01-13T06:25:56.786Z,8.40
2023-01-13T06:28:24.984Z,8.40
2023-01-13T06:31:00.048Z,8.40
2023-01-13T06:33:33.525Z,8.40
2023-01-13T06:36:05.603Z,8.40
2023-01-13T06:38:38.376Z,8.40
2023-01-13T06:41:08.990Z,8.30
2023-01-13T06:43:36.314Z,8.30
2023-01-13T06:46:06.557Z,8.30
2023-01-13T06:48:35.851Z,8.40
2023-01-13T06:51:04.769Z,8.30
2023-01-13T06:53:33.102Z,8.40
2023-01-13T06:56:01.225Z,8.30
2023-01-13T06:58:29.306Z,8.30
2023-01-13T07:01:01.679Z,8.30
2023-01-13T07:03:31.208Z,8.40
2023-01-13T07:06:00.417Z,8.40
2023-01-13T07:08:28.575Z,8.40
2023-01-13T07:10:56.696Z,8.50
2023-01-13T07:13:42.360Z,8.40
2023-01-13T07:16:10.963Z,8.50
2023-01-13T07:18:40.768Z,8.30
2023-01-13T07:21:10.453Z,8.40
2023-01-13T07:23:40.641Z,8.30
2023-01-13T07:28:39.815Z,8.50
2023-01-13T07:33:37.844Z,8.60
2023-01-13T07:36:08.296Z,8.50
2023-01-13T07:38:38.446Z,8.60
2023-01-13T07:41:21.615Z,8.60
2023-01-13T07:46:18.362Z,8.50
2023-01-13T07:48:48.802Z,8.50
2023-01-13T07:51:18.890Z,8.50
2023-01-13T07:53:46.994Z,8.60
2023-01-13T07:56:15.158Z,8.40
2023-01-13T07:58:44.387Z,8.60
2023-01-13T08:01:14.593Z,8.60
2023-01-13T08:06:12.302Z,8.50
2023-01-13T08:08:41.733Z,8.60
2023-01-13T08:11:10.171Z,8.60
2023-01-13T08:13:38.361Z,8.60
2023-01-13T08:16:08.891Z,8.60
2023-01-13T08:23:36.342Z,8.80
2023-01-13T08:26:07.729Z,8.90
2023-01-13T08:28:35.979Z,8.90
2023-01-13T08:31:06.361Z,8.90
2023-01-13T08:33:35.116Z,8.90
2023-01-13T08:36:05.507Z,8.90
2023-01-13T08:38:34.504Z,8.90
2023-01-13T08:41:03.142Z,9.00
2023-01-13T08:43:32.586Z,9.10
2023-01-13T08:46:04.565Z,9.20
2023-01-13T08:48:32.992Z,9.30
2023-01-13T08:51:05.395Z,9.30
2023-01-13T08:53:33.742Z,9.40
2023-01-13T08:56:01.929Z,9.50
2023-01-13T08:58:30.188Z,9.60
2023-01-13T09:01:06.203Z,9.70
2023-01-13T09:03:34.606Z,9.80
2023-01-13T09:06:02.851Z,9.80
2023-01-13T09:08:30.960Z,10.00
2023-01-13T09:10:59.149Z,10.10
2023-01-13T09:13:26.458Z,10.20
2023-01-13T09:15:56.855Z,10.30
2023-01-13T09:18:26.500Z,10.30
2023-01-13T09:20:54.574Z,10.40
2023-01-13T09:23:22.634Z,10.40
2023-01-13T09:25:50.684Z,10.70
2023-01-13T09:28:18.774Z,10.60
2023-01-13T09:30:46.942Z,10.50
2023-01-13T09:33:32.496Z,10.40
2023-01-13T09:36:02.115Z,10.60
2023-01-13T09:38:30.253Z,10.50
2023-01-13T09:40:58.372Z,10.70
2023-01-13T09:43:50.857Z,10.70
2023-01-13T09:46:39.460Z,10.90
2023-01-13T09:49:15.946Z,11.20
2023-01-13T09:51:53.132Z,11.20
2023-01-13T09:54:32.070Z,11.60
2023-01-13T09:57:00.354Z,11.40
2023-01-13T09:59:32.597Z,11.50
2023-01-13T10:02:08.434Z,11.70
2023-01-13T10:04:36.659Z,11.60
2023-01-13T10:07:14.610Z,11.40
2023-01-13T10:09:50.235Z,11.50
2023-01-13T10:12:41.410Z,11.40
2023-01-13T10:15:15.852Z,10.80
2023-01-13T10:17:50.382Z,10.80
2023-01-13T10:20:22.812Z,10.70
2023-01-13T10:23:01.812Z,10.50
2023-01-13T10:25:43.388Z,10.50
2023-01-13T10:28:13.952Z,10.50
2023-01-13T10:30:43.574Z,10.50
2023-01-13T10:33:14.877Z,10.40
2023-01-13T10:36:05.167Z,10.40
2023-01-13T10:38:40.259Z,10.40
2023-01-13T10:41:20.108Z,10.30
2023-01-13T10:44:02.351Z,10.40
2023-01-13T10:46:32.191Z,10.40
2023-01-13T10:49:02.483Z,10.40
2023-01-13T10:51:31.921Z,10.40
2023-01-13T10:54:03.686Z,10.30
2023-01-13T10:56:33.814Z,10.30
2023-01-13T10:59:16.119Z,10.20
2023-01-13T11:01:54.747Z,10.20
2023-01-13T11:04:32.049Z,10.20
2023-01-13T11:07:00.798Z,10.20
2023-01-13T11:09:32.258Z,10.20
2023-01-13T11:12:02.982Z,10.00
2023-01-13T11:14:39.498Z,10.00
2023-01-13T11:17:30.978Z,9.90
2023-01-13T11:20:06.211Z,9.90
2023-01-13T11:22:38.197Z,9.90
2023-01-13T11:25:15.520Z,9.90
2023-01-13T11:27:48.001Z,10.00
2023-01-13T11:30:27.879Z,9.90
2023-01-13T11:33:16.705Z,9.90
2023-01-13T11:35:48.831Z,9.80
2023-01-13T11:38:28.718Z,9.80
2023-01-13T11:41:06.578Z,9.90
2023-01-13T11:43:41.185Z,9.80
2023-01-13T11:46:11.622Z,9.80
2023-01-13T11:48:43.394Z,9.80
2023-01-13T11:51:23.503Z,9.80
2023-01-13T11:54:09.220Z,9.90
2023-01-13T11:56:56.069Z,9.90
2023-01-13T12:00:08.728Z,9.80
2023-01-13T12:02:54.980Z,9.80
2023-01-13T12:05:33.371Z,9.90
2023-01-13T12:08:18.286Z,9.90
2023-01-13T12:11:00.282Z,9.90
2023-01-13T12:13:41.069Z,10.00
2023-01-13T12:16:23.592Z,10.00
2023-01-13T12:19:11.728Z,10.00
2023-01-13T12:21:57.745Z,10.10
2023-01-13T12:24:31.913Z,10.10
2023-01-13T12:27:03.892Z,10.10
2023-01-13T12:29:36.063Z,10.10
2023-01-13T12:32:08.140Z,10.00
2023-01-13T12:35:02.276Z,10.20
2023-01-13T12:37:36.880Z,10.20
2023-01-13T12:40:23.250Z,10.10
2023-01-13T12:43:14.470Z,10.20
2023-01-13T12:45:43.986Z,10.10
2023-01-13T12:48:56.996Z,10.20
2023-01-13T12:51:27.689Z,10.20
2023-01-13T12:53:56.523Z,10.20
2023-01-13T12:56:31.784Z,10.20
2023-01-13T12:59:50.409Z,10.20
2023-01-13T13:02:34.650Z,10.20
2023-01-13T13:05:44.321Z,10.10
2023-01-13T13:08:21.653Z,10.00
2023-01-13T13:11:33.237Z,10.10
2023-01-13T13:14:01.911Z,10.10
2023-01-13T13:16:53.827Z,10.10
2023-01-13T13:19:46.075Z,10.00
2023-01-13T13:22:44.664Z,10.00
2023-01-13T13:25:23.473Z,10.10
2023-01-13T13:28:02.220Z,9.90
2023-01-13T13:30:31.959Z,10.00
2023-01-13T13:33:19.357Z,10.00
2023-01-13T13:35:58.854Z,9.90
2023-01-13T13:39:08.349Z,9.90
2023-01-13T13:41:55.374Z,10.00
2023-01-13T13:45:04.490Z,10.00
2023-01-13T13:47:36.944Z,9.80
2023-01-13T13:50:09.017Z,9.90
2023-01-13T13:52:41.341Z,9.90
2023-01-13T13:55:18.566Z,9.90
2023-01-13T13:57:48.877Z,9.90
2023-01-13T14:00:30.417Z,9.90
2023-01-13T14:03:01.594Z,9.90
2023-01-13T14:05:31.246Z,10.00
2023-01-13T14:08:01.541Z,10.00
2023-01-13T14:10:35.199Z,10.00
2023-01-13T14:13:13.804Z,10.00
2023-01-13T14:15:43.496Z,10.10
2023-01-13T14:18:15.064Z,10.10
2023-01-13T14:20:44.030Z,10.10
2023-01-13T14:23:17.613Z,10.10
2023-01-13T14:25:48.961Z,10.10
2023-01-13T14:28:24.362Z,10.20
2023-01-13T14:30:55.148Z,10.10
2023-01-13T14:33:34.043Z,10.10
2023-01-13T14:36:24.333Z,10.10
2023-01-13T14:39:25.496Z,10.20
2023-01-13T14:41:53.999Z,10.10
2023-01-13T14:44:26.927Z,10.50
2023-01-13T14:46:58.039Z,9.40
2023-01-13T14:49:29.967Z,10.20
2023-01-13T14:52:13.119Z,10.10
2023-01-13T14:54:49.937Z,10.20
2023-01-13T14:57:27.556Z,10.30
2023-01-13T15:00:03.912Z,10.20
2023-01-13T15:02:49.936Z,10.20
2023-01-13T15:05:47.717Z,10.30
2023-01-13T15:08:33.987Z,10.10
2023-01-13T15:11:04.100Z,10.10
2023-01-13T15:13:37.690Z,10.10
2023-01-13T15:16:08.369Z,10.10
2023-01-13T15:18:40.875Z,10.10
2023-01-13T15:21:09.699Z,10.10
2023-01-13T15:23:39.930Z,10.10
2023-01-13T15:26:20.368Z,10.00
2023-01-13T15:28:48.976Z,10.00
2023-01-13T15:31:17.663Z,10.00
2023-01-13T15:33:47.171Z,10.10
2023-01-13T15:36:24.607Z,10.00
2023-01-13T15:38:52.760Z,10.00
2023-01-13T15:41:41.884Z,10.00
2023-01-13T15:44:29.878Z,10.00
2023-01-13T15:46:59.106Z,10.00
2023-01-13T15:49:34.918Z,10.00
2023-01-13T15:52:04.205Z,10.00
2023-01-13T15:54:32.561Z,10.00
2023-01-13T15:57:00.644Z,10.00
2023-01-13T15:59:29.566Z,9.90
2023-01-13T16:01:57.724Z,9.90
2023-01-13T16:04:25.783Z,10.00
2023-01-13T16:06:55.405Z,9.90
2023-01-13T16:09:23.735Z,9.90
2023-01-13T16:11:51.810Z,9.90
2023-01-13T16:14:19.891Z,9.90
2023-01-13T16:31:40.794Z,9.80
2023-01-13T16:34:08.883Z,9.80
2023-01-13T16:36:38.020Z,9.70
2023-01-13T16:54:06.503Z,9.70
2023-01-13T16:56:37.459Z,9.80
2023-01-13T17:04:06.295Z,9.60
2023-01-13T17:06:39.495Z,9.60
2023-01-13T17:09:09.814Z,9.50
2023-01-13T17:11:39.279Z,9.50
2023-01-13T17:14:19.208Z,9.40
2023-01-13T17:16:47.852Z,9.40
2023-01-13T17:19:16.024Z,9.30
2023-01-13T17:21:44.285Z,9.30
2023-01-13T17:24:12.478Z,9.20
2023-01-13T17:36:43.871Z,9.60
2023-01-13T17:39:16.882Z,9.50
2023-01-13T17:44:18.609Z,9.50
2023-01-13T17:46:47.214Z,9.30
2023-01-13T17:49:17.321Z,9.40
2023-01-13T17:51:48.155Z,9.40
2023-01-13T17:54:16.415Z,9.40
2023-01-13T17:56:46.098Z,9.40
2023-01-13T17:59:15.548Z,9.40
2023-01-13T18:01:43.998Z,9.40
2023-01-13T18:04:15.990Z,9.40
2023-01-13T19:55:28.307Z,9.10
2023-01-13T19:57:56.428Z,9.10
2023-01-13T20:00:24.556Z,9.00
2023-01-13T20:02:53.363Z,9.00
2023-01-13T20:05:25.755Z,9.00
2023-01-13T20:07:54.219Z,8.90
2023-01-13T20:10:24.689Z,8.90
2023-01-13T20:12:52.847Z,8.90
2023-01-13T20:15:20.914Z,8.90
2023-01-13T20:17:49.086Z,8.90
2023-01-13T20:20:18.579Z,8.90
2023-01-13T20:22:46.681Z,8.80
2023-01-13T20:25:17.496Z,8.80
2023-01-13T20:27:48.077Z,8.80
2023-01-13T20:30:16.997Z,8.70
2023-01-13T20:32:45.372Z,8.70
2023-01-13T20:35:13.449Z,8.70
2023-01-13T20:37:43.303Z,8.70
2023-01-13T20:40:15.304Z,8.60
2023-01-13T20:42:45.463Z,8.70
2023-01-13T20:45:20.832Z,8.60
2023-01-13T20:47:49.121Z,8.60
2023-01-13T20:50:17.701Z,8.70
2023-01-13T20:52:46.321Z,8.60
2023-01-13T20:55:17.235Z,8.70
2023-01-13T20:57:48.569Z,8.60
2023-01-13T21:00:19.264Z,8.60
2023-01-13T21:02:47.408Z,8.60
2023-01-13T21:05:15.631Z,8.60
2023-01-13T21:07:43.753Z,8.60
2023-01-13T21:10:12.407Z,8.60
2023-01-13T21:12:57.996Z,8.60
2023-01-13T21:15:27.842Z,8.60
2023-01-13T21:18:13.642Z,8.50
2023-01-13T21:20:41.793Z,8.50
2023-01-13T21:23:11.311Z,8.50
2023-01-13T21:25:40.238Z,8.50
2023-01-13T21:28:11.282Z,8.40
2023-01-13T21:30:40.998Z,8.40
2023-01-13T21:33:09.412Z,8.40
2023-01-13T21:35:39.494Z,8.40
2023-01-13T21:38:07.835Z,8.40
2023-01-13T21:40:35.957Z,8.40
2023-01-13T21:43:27.041Z,8.40
2023-01-13T21:46:14.227Z,8.40
2023-01-13T21:48:42.403Z,8.40
2023-01-13T21:51:10.482Z,8.30
2023-01-13T21:53:38.552Z,8.30
2023-01-13T21:56:07.179Z,8.30
2023-01-13T21:58:35.254Z,8.30
2023-01-13T22:01:04.832Z,8.30
2023-01-13T22:03:54.664Z,8.20
2023-01-13T22:06:22.792Z,8.20
2023-01-13T22:08:50.955Z,8.20
2023-01-13T22:11:19.069Z,8.20
2023-01-13T22:14:04.703Z,8.10
2023-01-13T22:16:37.763Z,8.10
2023-01-13T22:19:06.823Z,8.10
2023-01-13T22:21:35.396Z,8.10
2023-01-13T22:24:04.022Z,8.10
2023-01-13T22:26:32.111Z,8.10
2023-01-13T22:29:00.836Z,8.10
2023-01-13T22:31:31.608Z,8.00
2023-01-13T22:34:01.128Z,8.10
2023-01-13T22:36:29.288Z,8.00
2023-01-13T22:39:00.235Z,8.00
2023-01-13T22:41:28.446Z,8.00
2023-01-13T22:43:56.478Z,8.00
2023-01-13T22:46:24.557Z,8.00
2023-01-13T22:48:54.751Z,8.00
2023-01-13T22:51:25.185Z,8.00
2023-01-13T22:53:53.252Z,8.00
2023-01-13T22:56:23.283Z,8.00
2023-01-13T22:58:54.853Z,8.00
2023-01-13T23:01:23.556Z,7.90
2023-01-13T23:03:52.202Z,7.90
2023-01-13T23:06:22.187Z,7.90
2023-01-13T23:08:52.082Z,7.80
2023-01-13T23:11:23.481Z,7.80
2023-01-13T23:13:52.157Z,7.80
2023-01-13T23:16:22.103Z,7.80
2023-01-13T23:18:50.688Z,7.80
2023-01-13T23:21:21.010Z,7.80
2023-01-13T23:23:51.082Z,7.80
2023-01-13T23:26:19.917Z,7.80
2023-01-13T23:28:48.230Z,7.80
2023-01-13T23:31:18.896Z,7.80
2023-01-13T23:33:47.622Z,7.80
2023-01-13T23:38:46.944Z,7.80
2023-01-13T23:41:18.564Z,7.90
2023-01-13T23:43:51.851Z,7.70
2023-01-13T23:46:21.175Z,7.80
2023-01-13T23:48:49.839Z,7.80
2023-01-13T23:51:18.465Z,7.70
